Terminal Aerodrome Forecast
Issued by NWS Spokane, WA

Home | Current Version | Previous Version | Text Only | Print | Product List | Glossary On
Versions: 1 2 3 4 5 6 7 8 9 10 11 12 13 14 15 16 17 18 19 20 21 22 23 24 25 26 27 28
000
FTUS46 KOTX 261146 CCA
TAFEAT
TAF COR
KEAT 261146Z 2612/2712 00000KT P6SM BKN060 OVC100
     FM261400 VRB03KT 6SM -SN SCT035 OVC060
     FM261600 12003KT 3SM -SN OVC015
     FM262100 VRB03KT 6SM -SHSN BKN025 OVC050
     FM270000 30005KT P6SM SCT020 BKN040=

USA.gov is the U.S. government's official web portal to all federal, state and local government web resources and services.